This is the latest recevied weather packets stored in our database for station/object OE-11053. If no packets are shown the sender has not sent any weather packets the latest 10 day(s).
| Time | Temp. | Humidity | Pressure | Rain* | Wind** | Luminosity | Snow |
|---|---|---|---|---|---|---|---|
| 1787812523 | 20° C | 65% | 1015.5 hPa | 0 mm | - | 185 W/m² | - |
| 1787811923 | 20° C | 66% | 1015.4 hPa | 0 mm | - | 160 W/m² | - |
| 1787811335 | 20° C | 67% | 1015.5 hPa | 0 mm | - | 147 W/m² | - |
| 1787810723 | 19.44° C | 67% | 1015.6 hPa | 0 mm | - | 185 W/m² | - |
| 1787810123 | 18.89° C | 69% | 1015.5 hPa | 0 mm | - | 121 W/m² | - |
| 1787809296 | 18.89° C | 69% | 1015.6 hPa | 0 mm | - | 70 W/m² | - |
| 1787808923 | 18.89° C | 70% | 1015.7 hPa | 0 mm | - | 51 W/m² | - |
| 1787808323 | 18.33° C | 72% | 1015.9 hPa | 0 mm | - | 51 W/m² | - |
| 1787807496 | 17.78° C | 75% | 1016 hPa | 0 mm | - | 45 W/m² | - |
| 1787807123 | 17.78° C | 77% | 1016.2 hPa | 0 mm | - | 32 W/m² | - |
| 1787806523 | 17.78° C | 73% | 1016 hPa | 0 mm | - | 19 W/m² | - |
| 1787805695 | 18.33° C | 72% | 1016 hPa | 0 mm | - | 13 W/m² | - |
| 1787805323 | 18.33° C | 71% | 1015.8 hPa | 0 mm | - | 0 W/m² | - |
| 1787804723 | 18.33° C | 71% | 1015.7 hPa | 0 mm | - | 0 W/m² | - |
| 1787803896 | 18.33° C | 71% | 1015.6 hPa | 0 mm | - | 0 W/m² | - |
| 1787803523 | 18.33° C | 71% | 1015.5 hPa | 0 mm | - | 0 W/m² | - |
| 1787802923 | 18.33° C | 71% | 1015.2 hPa | 0 mm | - | 0 W/m² | - |
| 1787802323 | 18.33° C | 70% | 1015.1 hPa | 0 mm | - | 0 W/m² | - |
| 1787801723 | 18.89° C | 70% | 1015.2 hPa | 0 mm | - | 0 W/m² | - |
| 1787801123 | 18.89° C | 70% | 1015.2 hPa | 0 mm | - | 0 W/m² | - |
| 1787800296 | 18.89° C | 70% | 1015.2 hPa | 0 mm | - | 0 W/m² | - |
| 1787799923 | 18.89° C | 70% | 1015.4 hPa | 0 mm | - | 0 W/m² | - |
| 1787799323 | 18.89° C | 70% | 1015.5 hPa | 0 mm | - | 0 W/m² | - |
| 1787798495 | 18.89° C | 70% | 1015.5 hPa | 0 mm | - | 0 W/m² | - |
| 1787798123 | 18.89° C | 70% | 1015.5 hPa | 0 mm | - | 0 W/m² | - |
* Rain latest hour (hover to see other rain measurements)
** Current wind speed in m/s (hover to see current wind gust speed)